sensor_id;sensor_type;location;lat;lon;timestamp;P1;durP1;ratioP1;P2;durP2;ratioP2
13057;SDS011;6595;49.578;11.012;2022-08-03T00:00:24;4.5;;;4.0;;
13057;SDS011;6595;49.578;11.012;2022-08-03T00:02:24;4.5;;;4.0;;
13057;SDS011;6595;49.578;11.012;2022-08-03T00:04:24;4.3;;;4.0;;
13057;SDS011;6595;49.578;11.012;2022-08-03T00:06:23;4.7;;;3.6;;
13057;SDS011;6595;49.578;11.012;2022-08-03T00:08:23;6.6;;;3.9;;
13057;SDS011;6595;49.578;11.012;2022-08-03T00:10:23;6.6;;;3.9;;
13057;SDS011;6595;49.578;11.012;2022-08-03T00:12:23;4.5;;;4.1;;
13057;SDS011;6595;49.578;11.012;2022-08-03T00:14:23;4.2;;;3.8;;
13057;SDS011;6595;49.578;11.012;2022-08-03T00:16:23;4.7;;;4.3;;
13057;SDS011;6595;49.578;11.012;2022-08-03T00:18:23;4.4;;;4.1;;
13057;SDS011;6595;49.578;11.012;2022-08-03T00:20:24;4.1;;;3.8;;
13057;SDS011;6595;49.578;11.012;2022-08-03T00:22:23;4.1;;;3.8;;
13057;SDS011;6595;49.578;11.012;2022-08-03T00:24:23;4.3;;;3.9;;
13057;SDS011;6595;49.578;11.012;2022-08-03T00:26:23;4.3;;;4.0;;
13057;SDS011;6595;49.578;11.012;2022-08-03T00:28:23;5.0;;;4.5;;
13057;SDS011;6595;49.578;11.012;2022-08-03T00:30:23;5.0;;;4.5;;
13057;SDS011;6595;49.578;11.012;2022-08-03T00:32:24;4.4;;;4.0;;
13057;SDS011;6595;49.578;11.012;2022-08-03T00:34:23;4.6;;;4.1;;
13057;SDS011;6595;49.578;11.012;2022-08-03T00:36:24;4.4;;;4.0;;
13057;SDS011;6595;49.578;11.012;2022-08-03T00:38:24;4.8;;;4.2;;
13057;SDS011;6595;49.578;11.012;2022-08-03T00:40:24;4.8;;;4.2;;
13057;SDS011;6595;49.578;11.012;2022-08-03T00:42:24;4.7;;;4.2;;
13057;SDS011;6595;49.578;11.012;2022-08-03T00:44:23;5.0;;;4.3;;
13057;SDS011;6595;49.578;11.012;2022-08-03T00:46:23;4.7;;;4.3;;
13057;SDS011;6595;49.578;11.012;2022-08-03T00:48:23;4.7;;;4.3;;
13057;SDS011;6595;49.578;11.012;2022-08-03T00:50:24;4.7;;;4.3;;
13057;SDS011;6595;49.578;11.012;2022-08-03T00:52:24;4.5;;;4.1;;
13057;SDS011;6595;49.578;11.012;2022-08-03T00:54:24;4.3;;;4.0;;
13057;SDS011;6595;49.578;11.012;2022-08-03T00:56:23;4.9;;;4.4;;
13057;SDS011;6595;49.578;11.012;2022-08-03T00:58:24;4.8;;;4.4;;
13057;SDS011;6595;49.578;11.012;2022-08-03T01:00:24;4.8;;;4.4;;
13057;SDS011;6595;49.578;11.012;2022-08-03T01:02:23;5.0;;;4.0;;
13057;SDS011;6595;49.578;11.012;2022-08-03T01:04:23;5.1;;;4.4;;
13057;SDS011;6595;49.578;11.012;2022-08-03T01:06:24;5.2;;;3.8;;
13057;SDS011;6595;49.578;11.012;2022-08-03T01:08:27;5.2;;;3.8;;
13057;SDS011;6595;49.578;11.012;2022-08-03T01:10:25;4.3;;;3.9;;
13057;SDS011;6595;49.578;11.012;2022-08-03T01:12:26;4.2;;;3.9;;
13057;SDS011;6595;49.578;11.012;2022-08-03T01:14:25;4.2;;;3.9;;
13057;SDS011;6595;49.578;11.012;2022-08-03T01:16:26;4.3;;;4.0;;
13057;SDS011;6595;49.578;11.012;2022-08-03T01:18:25;4.3;;;4.0;;
13057;SDS011;6595;49.578;11.012;2022-08-03T01:20:24;4.6;;;4.2;;
13057;SDS011;6595;49.578;11.012;2022-08-03T01:22:36;4.5;;;4.1;;
13057;SDS011;6595;49.578;11.012;2022-08-03T01:24:29;5.2;;;4.2;;
13057;SDS011;6595;49.578;11.012;2022-08-03T01:26:33;4.4;;;4.1;;
13057;SDS011;6595;49.578;11.012;2022-08-03T01:28:27;4.4;;;4.1;;
13057;SDS011;6595;49.578;11.012;2022-08-03T01:30:24;4.5;;;4.2;;
13057;SDS011;6595;49.578;11.012;2022-08-03T01:32:27;4.4;;;4.1;;
13057;SDS011;6595;49.578;11.012;2022-08-03T01:34:25;4.6;;;4.3;;
13057;SDS011;6595;49.578;11.012;2022-08-03T01:36:24;6.9;;;4.3;;
13057;SDS011;6595;49.578;11.012;2022-08-03T01:38:24;6.9;;;4.3;;
13057;SDS011;6595;49.578;11.012;2022-08-03T01:40:24;4.4;;;4.1;;
13057;SDS011;6595;49.578;11.012;2022-08-03T01:42:23;4.7;;;4.3;;
13057;SDS011;6595;49.578;11.012;2022-08-03T01:44:23;4.7;;;4.3;;
13057;SDS011;6595;49.578;11.012;2022-08-03T01:46:24;4.3;;;3.9;;
13057;SDS011;6595;49.578;11.012;2022-08-03T01:48:23;4.3;;;3.9;;
13057;SDS011;6595;49.578;11.012;2022-08-03T01:50:25;6.9;;;4.4;;
13057;SDS011;6595;49.578;11.012;2022-08-03T01:52:23;4.3;;;4.0;;
13057;SDS011;6595;49.578;11.012;2022-08-03T01:54:24;6.4;;;4.3;;
13057;SDS011;6595;49.578;11.012;2022-08-03T01:56:24;7.2;;;4.9;;
13057;SDS011;6595;49.578;11.012;2022-08-03T01:58:24;7.2;;;4.9;;
13057;SDS011;6595;49.578;11.012;2022-08-03T02:00:24;4.9;;;4.5;;
13057;SDS011;6595;49.578;11.012;2022-08-03T02:02:23;4.9;;;4.5;;
13057;SDS011;6595;49.578;11.012;2022-08-03T02:04:23;4.4;;;4.0;;
13057;SDS011;6595;49.578;11.012;2022-08-03T02:06:24;4.4;;;4.0;;
13057;SDS011;6595;49.578;11.012;2022-08-03T02:08:24;4.9;;;4.3;;
13057;SDS011;6595;49.578;11.012;2022-08-03T02:10:23;5.5;;;4.2;;
13057;SDS011;6595;49.578;11.012;2022-08-03T02:12:24;4.9;;;4.5;;
13057;SDS011;6595;49.578;11.012;2022-08-03T02:14:24;4.5;;;4.2;;
13057;SDS011;6595;49.578;11.012;2022-08-03T02:16:24;4.5;;;4.2;;
13057;SDS011;6595;49.578;11.012;2022-08-03T02:18:24;4.7;;;4.4;;
13057;SDS011;6595;49.578;11.012;2022-08-03T02:20:23;5.4;;;5.0;;
13057;SDS011;6595;49.578;11.012;2022-08-03T02:22:23;5.4;;;5.0;;
13057;SDS011;6595;49.578;11.012;2022-08-03T02:24:23;4.4;;;4.1;;
13057;SDS011;6595;49.578;11.012;2022-08-03T02:26:23;4.4;;;4.1;;
13057;SDS011;6595;49.578;11.012;2022-08-03T02:28:25;5.2;;;4.8;;
13057;SDS011;6595;49.578;11.012;2022-08-03T02:30:24;5.0;;;4.5;;
13057;SDS011;6595;49.578;11.012;2022-08-03T02:32:33;4.6;;;4.3;;
13057;SDS011;6595;49.578;11.012;2022-08-03T02:34:24;4.5;;;4.1;;
13057;SDS011;6595;49.578;11.012;2022-08-03T02:36:24;4.5;;;4.1;;
13057;SDS011;6595;49.578;11.012;2022-08-03T02:38:25;4.4;;;4.1;;
13057;SDS011;6595;49.578;11.012;2022-08-03T02:40:23;4.7;;;4.3;;
13057;SDS011;6595;49.578;11.012;2022-08-03T02:42:23;4.7;;;4.3;;
13057;SDS011;6595;49.578;11.012;2022-08-03T02:44:24;4.9;;;4.5;;
13057;SDS011;6595;49.578;11.012;2022-08-03T02:46:26;4.9;;;4.5;;
13057;SDS011;6595;49.578;11.012;2022-08-03T02:48:24;4.4;;;4.1;;
13057;SDS011;6595;49.578;11.012;2022-08-03T02:50:23;4.6;;;4.2;;
13057;SDS011;6595;49.578;11.012;2022-08-03T02:52:24;4.6;;;4.2;;
13057;SDS011;6595;49.578;11.012;2022-08-03T02:54:23;4.6;;;4.3;;
13057;SDS011;6595;49.578;11.012;2022-08-03T02:56:24;4.6;;;4.3;;
13057;SDS011;6595;49.578;11.012;2022-08-03T02:58:24;4.6;;;4.3;;
13057;SDS011;6595;49.578;11.012;2022-08-03T03:00:24;4.7;;;4.3;;
13057;SDS011;6595;49.578;11.012;2022-08-03T03:02:23;5.1;;;4.7;;
13057;SDS011;6595;49.578;11.012;2022-08-03T03:04:23;5.1;;;4.7;;
13057;SDS011;6595;49.578;11.012;2022-08-03T03:06:23;4.7;;;4.3;;
13057;SDS011;6595;49.578;11.012;2022-08-03T03:08:23;4.7;;;4.3;;
13057;SDS011;6595;49.578;11.012;2022-08-03T03:10:24;4.7;;;4.3;;
13057;SDS011;6595;49.578;11.012;2022-08-03T03:12:23;4.7;;;4.4;;
13057;SDS011;6595;49.578;11.012;2022-08-03T03:14:23;4.7;;;4.4;;
13057;SDS011;6595;49.578;11.012;2022-08-03T03:16:24;5.5;;;4.3;;
13057;SDS011;6595;49.578;11.012;2022-08-03T03:18:23;4.7;;;4.4;;
13057;SDS011;6595;49.578;11.012;2022-08-03T03:20:23;4.7;;;4.3;;
13057;SDS011;6595;49.578;11.012;2022-08-03T03:22:23;4.7;;;4.3;;
13057;SDS011;6595;49.578;11.012;2022-08-03T03:24:23;4.9;;;4.5;;
13057;SDS011;6595;49.578;11.012;2022-08-03T03:26:23;5.3;;;4.8;;
13057;SDS011;6595;49.578;11.012;2022-08-03T03:28:24;6.5;;;4.7;;
13057;SDS011;6595;49.578;11.012;2022-08-03T03:30:24;4.7;;;4.4;;
13057;SDS011;6595;49.578;11.012;2022-08-03T03:32:23;5.3;;;4.8;;
13057;SDS011;6595;49.578;11.012;2022-08-03T03:34:24;5.3;;;4.8;;
13057;SDS011;6595;49.578;11.012;2022-08-03T03:36:24;4.5;;;4.2;;
13057;SDS011;6595;49.578;11.012;2022-08-03T03:38:24;5.1;;;4.7;;
13057;SDS011;6595;49.578;11.012;2022-08-03T03:40:23;4.3;;;4.0;;
13057;SDS011;6595;49.578;11.012;2022-08-03T03:42:24;4.3;;;4.0;;
13057;SDS011;6595;49.578;11.012;2022-08-03T03:44:25;5.0;;;4.5;;
13057;SDS011;6595;49.578;11.012;2022-08-03T03:46:24;5.2;;;4.7;;
13057;SDS011;6595;49.578;11.012;2022-08-03T03:48:24;5.7;;;4.4;;
13057;SDS011;6595;49.578;11.012;2022-08-03T03:50:24;4.9;;;4.6;;
13057;SDS011;6595;49.578;11.012;2022-08-03T03:52:24;4.9;;;4.6;;
13057;SDS011;6595;49.578;11.012;2022-08-03T03:54:24;5.3;;;4.5;;
13057;SDS011;6595;49.578;11.012;2022-08-03T03:56:23;5.0;;;4.6;;
13057;SDS011;6595;49.578;11.012;2022-08-03T03:58:23;4.7;;;4.3;;
13057;SDS011;6595;49.578;11.012;2022-08-03T04:00:23;4.7;;;4.3;;
13057;SDS011;6595;49.578;11.012;2022-08-03T04:02:24;5.3;;;4.8;;
13057;SDS011;6595;49.578;11.012;2022-08-03T04:04:23;5.0;;;4.5;;
13057;SDS011;6595;49.578;11.012;2022-08-03T04:06:23;5.4;;;4.9;;
13057;SDS011;6595;49.578;11.012;2022-08-03T04:08:23;5.1;;;4.6;;
13057;SDS011;6595;49.578;11.012;2022-08-03T04:10:24;5.1;;;4.7;;
13057;SDS011;6595;49.578;11.012;2022-08-03T04:12:23;5.1;;;4.7;;
13057;SDS011;6595;49.578;11.012;2022-08-03T04:14:24;5.3;;;4.9;;
13057;SDS011;6595;49.578;11.012;2022-08-03T04:16:25;6.3;;;4.8;;
13057;SDS011;6595;49.578;11.012;2022-08-03T04:18:24;5.1;;;4.6;;
13057;SDS011;6595;49.578;11.012;2022-08-03T04:20:25;5.1;;;4.6;;
13057;SDS011;6595;49.578;11.012;2022-08-03T04:22:24;5.1;;;4.7;;
13057;SDS011;6595;49.578;11.012;2022-08-03T04:24:24;4.8;;;4.5;;
13057;SDS011;6595;49.578;11.012;2022-08-03T04:26:23;5.4;;;4.5;;
13057;SDS011;6595;49.578;11.012;2022-08-03T04:28:23;5.4;;;4.5;;
13057;SDS011;6595;49.578;11.012;2022-08-03T04:30:24;4.9;;;4.5;;
13057;SDS011;6595;49.578;11.012;2022-08-03T04:32:24;4.7;;;4.3;;
13057;SDS011;6595;49.578;11.012;2022-08-03T04:34:23;4.8;;;4.4;;
13057;SDS011;6595;49.578;11.012;2022-08-03T04:36:25;5.1;;;4.7;;
13057;SDS011;6595;49.578;11.012;2022-08-03T04:38:23;4.9;;;4.5;;
13057;SDS011;6595;49.578;11.012;2022-08-03T04:40:27;4.9;;;4.5;;
13057;SDS011;6595;49.578;11.012;2022-08-03T04:42:23;4.9;;;4.5;;
13057;SDS011;6595;49.578;11.012;2022-08-03T04:44:23;4.5;;;4.2;;
13057;SDS011;6595;49.578;11.012;2022-08-03T04:46:25;4.5;;;4.2;;
13057;SDS011;6595;49.578;11.012;2022-08-03T04:48:24;5.5;;;5.0;;
13057;SDS011;6595;49.578;11.012;2022-08-03T04:50:24;5.5;;;5.0;;
13057;SDS011;6595;49.578;11.012;2022-08-03T04:52:24;5.6;;;4.5;;
13057;SDS011;6595;49.578;11.012;2022-08-03T04:54:24;4.9;;;4.5;;
13057;SDS011;6595;49.578;11.012;2022-08-03T04:56:23;4.8;;;4.4;;
13057;SDS011;6595;49.578;11.012;2022-08-03T04:58:23;5.7;;;4.7;;
13057;SDS011;6595;49.578;11.012;2022-08-03T05:00:24;5.7;;;4.7;;
13057;SDS011;6595;49.578;11.012;2022-08-03T05:02:23;6.0;;;4.8;;
13057;SDS011;6595;49.578;11.012;2022-08-03T05:04:24;5.0;;;4.5;;
13057;SDS011;6595;49.578;11.012;2022-08-03T05:06:23;4.9;;;4.5;;
13057;SDS011;6595;49.578;11.012;2022-08-03T05:08:23;7.2;;;4.8;;
13057;SDS011;6595;49.578;11.012;2022-08-03T05:10:23;7.2;;;4.8;;
13057;SDS011;6595;49.578;11.012;2022-08-03T05:12:23;7.0;;;4.9;;
13057;SDS011;6595;49.578;11.012;2022-08-03T05:14:23;5.5;;;4.8;;
13057;SDS011;6595;49.578;11.012;2022-08-03T05:16:24;5.4;;;5.0;;
13057;SDS011;6595;49.578;11.012;2022-08-03T05:18:24;4.7;;;4.1;;
13057;SDS011;6595;49.578;11.012;2022-08-03T05:20:24;4.7;;;4.1;;
13057;SDS011;6595;49.578;11.012;2022-08-03T05:22:24;12.9;;;7.7;;
13057;SDS011;6595;49.578;11.012;2022-08-03T05:24:24;12.9;;;7.7;;
13057;SDS011;6595;49.578;11.012;2022-08-03T05:26:23;10.0;;;5.3;;
13057;SDS011;6595;49.578;11.012;2022-08-03T05:28:23;5.7;;;5.1;;
13057;SDS011;6595;49.578;11.012;2022-08-03T05:30:23;5.7;;;5.1;;
13057;SDS011;6595;49.578;11.012;2022-08-03T05:32:23;5.1;;;4.6;;
13057;SDS011;6595;49.578;11.012;2022-08-03T05:34:24;9.7;;;4.5;;
13057;SDS011;6595;49.578;11.012;2022-08-03T05:36:23;6.0;;;5.4;;
13057;SDS011;6595;49.578;11.012;2022-08-03T05:38:24;4.9;;;4.4;;
13057;SDS011;6595;49.578;11.012;2022-08-03T05:40:24;4.9;;;4.4;;
13057;SDS011;6595;49.578;11.012;2022-08-03T05:42:23;7.8;;;4.3;;
13057;SDS011;6595;49.578;11.012;2022-08-03T05:44:23;6.3;;;4.4;;
13057;SDS011;6595;49.578;11.012;2022-08-03T05:46:23;4.7;;;4.4;;
13057;SDS011;6595;49.578;11.012;2022-08-03T05:48:23;4.7;;;4.4;;
13057;SDS011;6595;49.578;11.012;2022-08-03T05:50:23;4.6;;;4.2;;
13057;SDS011;6595;49.578;11.012;2022-08-03T05:52:24;6.9;;;5.2;;
13057;SDS011;6595;49.578;11.012;2022-08-03T05:54:23;6.9;;;5.2;;
13057;SDS011;6595;49.578;11.012;2022-08-03T05:56:23;4.8;;;4.4;;
13057;SDS011;6595;49.578;11.012;2022-08-03T05:58:23;4.8;;;4.4;;
13057;SDS011;6595;49.578;11.012;2022-08-03T06:00:23;5.2;;;4.3;;
13057;SDS011;6595;49.578;11.012;2022-08-03T06:02:24;4.4;;;4.0;;
13057;SDS011;6595;49.578;11.012;2022-08-03T06:04:23;4.4;;;4.0;;
13057;SDS011;6595;49.578;11.012;2022-08-03T06:06:24;4.4;;;3.9;;
13057;SDS011;6595;49.578;11.012;2022-08-03T06:08:24;4.4;;;3.9;;
13057;SDS011;6595;49.578;11.012;2022-08-03T06:10:24;4.5;;;4.1;;
13057;SDS011;6595;49.578;11.012;2022-08-03T06:12:24;4.7;;;3.6;;
13057;SDS011;6595;49.578;11.012;2022-08-03T06:14:24;4.1;;;3.7;;
13057;SDS011;6595;49.578;11.012;2022-08-03T06:16:23;4.0;;;3.6;;
13057;SDS011;6595;49.578;11.012;2022-08-03T06:18:23;4.0;;;3.6;;
13057;SDS011;6595;49.578;11.012;2022-08-03T06:20:23;4.3;;;3.7;;
13057;SDS011;6595;49.578;11.012;2022-08-03T06:22:24;4.8;;;4.4;;
13057;SDS011;6595;49.578;11.012;2022-08-03T06:24:24;4.4;;;3.6;;
13057;SDS011;6595;49.578;11.012;2022-08-03T06:26:24;4.4;;;3.6;;
13057;SDS011;6595;49.578;11.012;2022-08-03T06:28:23;5.3;;;3.8;;
13057;SDS011;6595;49.578;11.012;2022-08-03T06:30:24;4.0;;;3.7;;
13057;SDS011;6595;49.578;11.012;2022-08-03T06:32:24;4.4;;;3.9;;
13057;SDS011;6595;49.578;11.012;2022-08-03T06:34:23;7.4;;;3.7;;
13057;SDS011;6595;49.578;11.012;2022-08-03T06:36:23;7.4;;;3.7;;
13057;SDS011;6595;49.578;11.012;2022-08-03T06:38:24;5.5;;;3.6;;
13057;SDS011;6595;49.578;11.012;2022-08-03T06:40:24;3.9;;;3.6;;
13057;SDS011;6595;49.578;11.012;2022-08-03T06:42:23;4.3;;;3.6;;
13057;SDS011;6595;49.578;11.012;2022-08-03T06:44:24;4.3;;;3.6;;
13057;SDS011;6595;49.578;11.012;2022-08-03T06:46:24;4.2;;;3.3;;
13057;SDS011;6595;49.578;11.012;2022-08-03T06:48:24;3.8;;;3.3;;
13057;SDS011;6595;49.578;11.012;2022-08-03T06:50:24;4.9;;;3.5;;
13057;SDS011;6595;49.578;11.012;2022-08-03T06:52:24;4.9;;;3.5;;
13057;SDS011;6595;49.578;11.012;2022-08-03T06:54:24;3.7;;;3.4;;
13057;SDS011;6595;49.578;11.012;2022-08-03T06:56:23;3.7;;;3.4;;
13057;SDS011;6595;49.578;11.012;2022-08-03T06:58:24;3.5;;;3.2;;
13057;SDS011;6595;49.578;11.012;2022-08-03T07:00:23;4.4;;;3.3;;
13057;SDS011;6595;49.578;11.012;2022-08-03T07:02:23;5.0;;;3.3;;
13057;SDS011;6595;49.578;11.012;2022-08-03T07:04:23;5.5;;;3.6;;
13057;SDS011;6595;49.578;11.012;2022-08-03T07:06:24;5.5;;;3.6;;
13057;SDS011;6595;49.578;11.012;2022-08-03T07:08:24;3.7;;;3.3;;
13057;SDS011;6595;49.578;11.012;2022-08-03T07:10:23;3.7;;;3.3;;
13057;SDS011;6595;49.578;11.012;2022-08-03T07:12:25;12.8;;;10.2;;
13057;SDS011;6595;49.578;11.012;2022-08-03T07:14:23;12.8;;;10.2;;
13057;SDS011;6595;49.578;11.012;2022-08-03T07:16:23;3.7;;;3.5;;
13057;SDS011;6595;49.578;11.012;2022-08-03T07:18:23;3.7;;;3.5;;
13057;SDS011;6595;49.578;11.012;2022-08-03T07:20:23;6.1;;;3.5;;
13057;SDS011;6595;49.578;11.012;2022-08-03T07:22:24;6.1;;;3.5;;
13057;SDS011;6595;49.578;11.012;2022-08-03T07:24:24;3.5;;;3.2;;
13057;SDS011;6595;49.578;11.012;2022-08-03T07:26:23;5.0;;;3.1;;
13057;SDS011;6595;49.578;11.012;2022-08-03T07:28:23;4.3;;;3.5;;
13057;SDS011;6595;49.578;11.012;2022-08-03T07:30:23;6.4;;;3.7;;
13057;SDS011;6595;49.578;11.012;2022-08-03T07:32:23;6.2;;;4.0;;
13057;SDS011;6595;49.578;11.012;2022-08-03T07:34:24;6.2;;;4.0;;
13057;SDS011;6595;49.578;11.012;2022-08-03T07:36:24;3.8;;;3.5;;
13057;SDS011;6595;49.578;11.012;2022-08-03T07:38:24;6.4;;;3.3;;
13057;SDS011;6595;49.578;11.012;2022-08-03T07:40:24;3.8;;;3.4;;
13057;SDS011;6595;49.578;11.012;2022-08-03T07:42:24;6.6;;;3.4;;
13057;SDS011;6595;49.578;11.012;2022-08-03T07:44:24;6.6;;;3.4;;
13057;SDS011;6595;49.578;11.012;2022-08-03T07:46:23;5.9;;;3.3;;
13057;SDS011;6595;49.578;11.012;2022-08-03T07:48:23;6.1;;;4.2;;
13057;SDS011;6595;49.578;11.012;2022-08-03T07:50:23;3.2;;;3.0;;
13057;SDS011;6595;49.578;11.012;2022-08-03T07:52:23;3.4;;;3.1;;
13057;SDS011;6595;49.578;11.012;2022-08-03T07:54:23;3.4;;;3.1;;
13057;SDS011;6595;49.578;11.012;2022-08-03T07:56:24;3.6;;;3.0;;
13057;SDS011;6595;49.578;11.012;2022-08-03T07:58:24;3.4;;;3.2;;
13057;SDS011;6595;49.578;11.012;2022-08-03T08:00:24;3.5;;;3.2;;
13057;SDS011;6595;49.578;11.012;2022-08-03T08:02:24;3.2;;;3.0;;
13057;SDS011;6595;49.578;11.012;2022-08-03T08:04:24;3.2;;;3.0;;
13057;SDS011;6595;49.578;11.012;2022-08-03T08:06:23;3.4;;;3.1;;
13057;SDS011;6595;49.578;11.012;2022-08-03T08:08:23;3.5;;;3.2;;
13057;SDS011;6595;49.578;11.012;2022-08-03T08:10:23;2.9;;;2.8;;
13057;SDS011;6595;49.578;11.012;2022-08-03T08:12:23;3.1;;;2.9;;
13057;SDS011;6595;49.578;11.012;2022-08-03T08:14:23;3.1;;;2.9;;
13057;SDS011;6595;49.578;11.012;2022-08-03T08:16:23;3.2;;;3.0;;
13057;SDS011;6595;49.578;11.012;2022-08-03T08:18:23;3.1;;;2.9;;
13057;SDS011;6595;49.578;11.012;2022-08-03T08:20:24;3.5;;;3.2;;
13057;SDS011;6595;49.578;11.012;2022-08-03T08:22:23;3.5;;;3.2;;
13057;SDS011;6595;49.578;11.012;2022-08-03T08:24:24;4.9;;;3.8;;
13057;SDS011;6595;49.578;11.012;2022-08-03T08:26:24;2.9;;;2.7;;
13057;SDS011;6595;49.578;11.012;2022-08-03T08:28:24;3.2;;;3.0;;
13057;SDS011;6595;49.578;11.012;2022-08-03T08:30:24;3.2;;;3.0;;
13057;SDS011;6595;49.578;11.012;2022-08-03T08:32:24;3.2;;;3.0;;
13057;SDS011;6595;49.578;11.012;2022-08-03T08:34:23;5.3;;;2.9;;
13057;SDS011;6595;49.578;11.012;2022-08-03T08:36:24;3.4;;;3.1;;
13057;SDS011;6595;49.578;11.012;2022-08-03T08:38:24;3.4;;;3.1;;
13057;SDS011;6595;49.578;11.012;2022-08-03T08:40:24;4.9;;;3.2;;
13057;SDS011;6595;49.578;11.012;2022-08-03T08:42:24;4.9;;;3.2;;
13057;SDS011;6595;49.578;11.012;2022-08-03T08:44:24;3.6;;;3.3;;
13057;SDS011;6595;49.578;11.012;2022-08-03T08:46:23;2.9;;;2.7;;
13057;SDS011;6595;49.578;11.012;2022-08-03T08:48:24;2.9;;;2.7;;
13057;SDS011;6595;49.578;11.012;2022-08-03T08:50:23;3.2;;;3.0;;
13057;SDS011;6595;49.578;11.012;2022-08-03T08:52:24;3.1;;;2.9;;
13057;SDS011;6595;49.578;11.012;2022-08-03T08:54:23;3.0;;;2.8;;
13057;SDS011;6595;49.578;11.012;2022-08-03T08:56:24;3.8;;;2.9;;
13057;SDS011;6595;49.578;11.012;2022-08-03T08:58:23;3.8;;;2.9;;
13057;SDS011;6595;49.578;11.012;2022-08-03T09:00:23;6.0;;;3.0;;
13057;SDS011;6595;49.578;11.012;2022-08-03T09:02:27;3.0;;;2.8;;
13057;SDS011;6595;49.578;11.012;2022-08-03T09:04:24;5.6;;;3.2;;
13057;SDS011;6595;49.578;11.012;2022-08-03T09:06:23;5.5;;;2.9;;
13057;SDS011;6595;49.578;11.012;2022-08-03T09:08:23;2.9;;;2.7;;
13057;SDS011;6595;49.578;11.012;2022-08-03T09:10:23;2.9;;;2.7;;
13057;SDS011;6595;49.578;11.012;2022-08-03T09:12:24;4.7;;;2.8;;
13057;SDS011;6595;49.578;11.012;2022-08-03T09:14:24;4.7;;;3.0;;
13057;SDS011;6595;49.578;11.012;2022-08-03T09:16:24;4.3;;;2.8;;
13057;SDS011;6595;49.578;11.012;2022-08-03T09:18:27;4.3;;;2.8;;
13057;SDS011;6595;49.578;11.012;2022-08-03T09:20:23;4.6;;;2.9;;
13057;SDS011;6595;49.578;11.012;2022-08-03T09:22:23;3.7;;;2.8;;
13057;SDS011;6595;49.578;11.012;2022-08-03T09:24:23;4.5;;;3.4;;
13057;SDS011;6595;49.578;11.012;2022-08-03T09:26:24;3.0;;;2.8;;
13057;SDS011;6595;49.578;11.012;2022-08-03T09:28:23;3.0;;;2.8;;
13057;SDS011;6595;49.578;11.012;2022-08-03T09:30:24;5.2;;;2.6;;
13057;SDS011;6595;49.578;11.012;2022-08-03T09:32:24;3.0;;;2.8;;
13057;SDS011;6595;49.578;11.012;2022-08-03T09:34:24;4.1;;;2.6;;
13057;SDS011;6595;49.578;11.012;2022-08-03T09:38:24;3.2;;;2.9;;
13057;SDS011;6595;49.578;11.012;2022-08-03T09:40:32;3.3;;;3.0;;
13057;SDS011;6595;49.578;11.012;2022-08-03T09:42:23;3.1;;;2.8;;
13057;SDS011;6595;49.578;11.012;2022-08-03T09:44:25;8.3;;;5.7;;
13057;SDS011;6595;49.578;11.012;2022-08-03T09:46:24;3.4;;;3.0;;
13057;SDS011;6595;49.578;11.012;2022-08-03T09:48:24;3.4;;;3.0;;
13057;SDS011;6595;49.578;11.012;2022-08-03T09:50:24;8.1;;;3.0;;
13057;SDS011;6595;49.578;11.012;2022-08-03T09:52:28;2.5;;;2.3;;
13057;SDS011;6595;49.578;11.012;2022-08-03T09:54:25;2.3;;;2.2;;
13057;SDS011;6595;49.578;11.012;2022-08-03T09:56:23;2.4;;;2.2;;
13057;SDS011;6595;49.578;11.012;2022-08-03T09:58:23;2.4;;;2.2;;
13057;SDS011;6595;49.578;11.012;2022-08-03T10:00:23;2.4;;;1.9;;
13057;SDS011;6595;49.578;11.012;2022-08-03T10:02:24;2.9;;;2.3;;
13057;SDS011;6595;49.578;11.012;2022-08-03T10:04:23;3.1;;;1.9;;
13057;SDS011;6595;49.578;11.012;2022-08-03T10:06:23;3.1;;;1.9;;
13057;SDS011;6595;49.578;11.012;2022-08-03T10:08:24;3.5;;;2.0;;
13057;SDS011;6595;49.578;11.012;2022-08-03T10:10:24;2.7;;;1.8;;
13057;SDS011;6595;49.578;11.012;2022-08-03T10:12:24;2.7;;;1.8;;
13057;SDS011;6595;49.578;11.012;2022-08-03T10:14:24;3.9;;;2.0;;
13057;SDS011;6595;49.578;11.012;2022-08-03T10:16:23;3.7;;;2.1;;
13057;SDS011;6595;49.578;11.012;2022-08-03T10:18:23;3.7;;;2.1;;
13057;SDS011;6595;49.578;11.012;2022-08-03T10:20:23;2.0;;;1.9;;
13057;SDS011;6595;49.578;11.012;2022-08-03T10:22:25;2.0;;;1.9;;
13057;SDS011;6595;49.578;11.012;2022-08-03T10:24:24;2.0;;;1.8;;
13057;SDS011;6595;49.578;11.012;2022-08-03T10:26:24;2.0;;;1.8;;
13057;SDS011;6595;49.578;11.012;2022-08-03T10:28:24;1.7;;;1.6;;
13057;SDS011;6595;49.578;11.012;2022-08-03T10:30:24;2.0;;;1.8;;
13057;SDS011;6595;49.578;11.012;2022-08-03T10:32:26;2.1;;;1.9;;
13057;SDS011;6595;49.578;11.012;2022-08-03T10:34:25;3.8;;;2.1;;
13057;SDS011;6595;49.578;11.012;2022-08-03T10:36:24;3.8;;;2.1;;
13057;SDS011;6595;49.578;11.012;2022-08-03T10:38:24;2.2;;;2.0;;
13057;SDS011;6595;49.578;11.012;2022-08-03T10:40:25;2.1;;;2.0;;
13057;SDS011;6595;49.578;11.012;2022-08-03T10:42:23;2.8;;;1.9;;
13057;SDS011;6595;49.578;11.012;2022-08-03T10:44:24;4.0;;;2.3;;
13057;SDS011;6595;49.578;11.012;2022-08-03T10:46:23;4.0;;;2.3;;
13057;SDS011;6595;49.578;11.012;2022-08-03T10:48:23;2.8;;;2.5;;
13057;SDS011;6595;49.578;11.012;2022-08-03T10:50:23;2.8;;;2.2;;
13057;SDS011;6595;49.578;11.012;2022-08-03T10:52:23;2.8;;;2.2;;
13057;SDS011;6595;49.578;11.012;2022-08-03T10:56:36;4.0;;;2.2;;
13057;SDS011;6595;49.578;11.012;2022-08-03T11:00:24;2.8;;;2.6;;
13057;SDS011;6595;49.578;11.012;2022-08-03T11:02:30;7.2;;;2.2;;
13057;SDS011;6595;49.578;11.012;2022-08-03T11:04:24;2.1;;;1.9;;
13057;SDS011;6595;49.578;11.012;2022-08-03T11:06:24;2.1;;;1.9;;
13057;SDS011;6595;49.578;11.012;2022-08-03T11:08:24;2.2;;;2.1;;
13057;SDS011;6595;49.578;11.012;2022-08-03T11:10:30;2.4;;;2.2;;
13057;SDS011;6595;49.578;11.012;2022-08-03T11:12:24;2.7;;;2.1;;
13057;SDS011;6595;49.578;11.012;2022-08-03T11:14:24;2.0;;;1.9;;
13057;SDS011;6595;49.578;11.012;2022-08-03T11:16:25;2.0;;;1.9;;
13057;SDS011;6595;49.578;11.012;2022-08-03T11:18:23;23.7;;;3.9;;
13057;SDS011;6595;49.578;11.012;2022-08-03T11:22:23;2.2;;;2.0;;
13057;SDS011;6595;49.578;11.012;2022-08-03T11:26:23;2.3;;;2.1;;
13057;SDS011;6595;49.578;11.012;2022-08-03T11:28:24;3.0;;;2.1;;
13057;SDS011;6595;49.578;11.012;2022-08-03T11:30:24;14.2;;;2.9;;
13057;SDS011;6595;49.578;11.012;2022-08-03T11:34:24;3.0;;;1.9;;
13057;SDS011;6595;49.578;11.012;2022-08-03T11:36:23;3.0;;;1.9;;
13057;SDS011;6595;49.578;11.012;2022-08-03T11:38:23;5.9;;;2.2;;
13057;SDS011;6595;49.578;11.012;2022-08-03T11:40:31;8.3;;;2.6;;
13057;SDS011;6595;49.578;11.012;2022-08-03T11:46:23;7.9;;;2.5;;
13057;SDS011;6595;49.578;11.012;2022-08-03T11:48:25;4.0;;;1.8;;
13057;SDS011;6595;49.578;11.012;2022-08-03T11:50:23;3.6;;;1.6;;
13057;SDS011;6595;49.578;11.012;2022-08-03T11:52:24;7.6;;;1.8;;
13057;SDS011;6595;49.578;11.012;2022-08-03T11:54:24;7.6;;;1.8;;
13057;SDS011;6595;49.578;11.012;2022-08-03T11:56:23;2.8;;;1.8;;
13057;SDS011;6595;49.578;11.012;2022-08-03T11:58:23;3.0;;;1.7;;
13057;SDS011;6595;49.578;11.012;2022-08-03T12:00:25;3.0;;;1.7;;
13057;SDS011;6595;49.578;11.012;2022-08-03T12:02:24;87.8;;;5.3;;
13057;SDS011;6595;49.578;11.012;2022-08-03T12:04:23;87.8;;;5.3;;
13057;SDS011;6595;49.578;11.012;2022-08-03T12:06:24;4.7;;;1.7;;
13057;SDS011;6595;49.578;11.012;2022-08-03T12:08:31;3.6;;;1.7;;
13057;SDS011;6595;49.578;11.012;2022-08-03T12:10:24;3.6;;;1.7;;
13057;SDS011;6595;49.578;11.012;2022-08-03T12:12:23;28.1;;;2.6;;
13057;SDS011;6595;49.578;11.012;2022-08-03T12:14:23;28.1;;;2.6;;
13057;SDS011;6595;49.578;11.012;2022-08-03T12:16:24;9.2;;;1.6;;
13057;SDS011;6595;49.578;11.012;2022-08-03T12:18:24;3.3;;;1.6;;
13057;SDS011;6595;49.578;11.012;2022-08-03T12:20:25;7.9;;;1.6;;
13057;SDS011;6595;49.578;11.012;2022-08-03T12:22:29;7.9;;;1.6;;
13057;SDS011;6595;49.578;11.012;2022-08-03T12:24:24;2.6;;;1.9;;
13057;SDS011;6595;49.578;11.012;2022-08-03T12:26:23;8.1;;;1.9;;
13057;SDS011;6595;49.578;11.012;2022-08-03T12:28:23;3.4;;;1.7;;
13057;SDS011;6595;49.578;11.012;2022-08-03T12:30:24;1.7;;;1.6;;
13057;SDS011;6595;49.578;11.012;2022-08-03T12:32:24;1.7;;;1.6;;
13057;SDS011;6595;49.578;11.012;2022-08-03T12:34:23;2.4;;;1.5;;
13057;SDS011;6595;49.578;11.012;2022-08-03T12:36:24;1.5;;;1.5;;
13057;SDS011;6595;49.578;11.012;2022-08-03T12:38:24;10.9;;;2.0;;
13057;SDS011;6595;49.578;11.012;2022-08-03T12:40:24;10.9;;;2.0;;